createdAt,value
2022-07-28T00:00:08.711Z,84.05
2022-07-28T00:01:08.635Z,83.54
2022-07-28T00:02:08.716Z,83.64
2022-07-28T00:03:08.671Z,82.92
2022-07-28T00:04:08.614Z,83.23
2022-07-28T00:05:08.609Z,83.74
2022-07-28T00:06:08.598Z,83.74
2022-07-28T00:07:08.619Z,83.58
2022-07-28T00:08:08.580Z,83.58
2022-07-28T00:09:08.585Z,83.74
2022-07-28T00:10:08.568Z,83.27
2022-07-28T00:11:08.551Z,84.05
2022-07-28T00:12:08.579Z,83.84
2022-07-28T00:13:08.542Z,83.44
2022-07-28T00:14:08.540Z,83.95
2022-07-28T00:15:08.526Z,83.13
2022-07-28T00:16:08.538Z,83.33
2022-07-28T00:17:08.534Z,84.05
2022-07-28T00:18:08.501Z,84.09
2022-07-28T00:19:08.499Z,84.19
2022-07-28T00:20:08.489Z,83.68
2022-07-28T00:21:08.475Z,84.09
2022-07-28T00:22:08.502Z,83.47
2022-07-28T00:23:08.464Z,84.19
2022-07-28T00:24:08.456Z,84.19
2022-07-28T00:25:08.445Z,84.29
2022-07-28T00:26:08.447Z,85.05
2022-07-28T00:27:08.459Z,84.84
2022-07-28T00:28:08.427Z,84.64
2022-07-28T00:29:08.424Z,84.74
2022-07-28T00:30:08.414Z,85.05
2022-07-28T00:31:09.857Z,85.25
2022-07-28T00:32:08.494Z,85.25
2022-07-28T00:33:08.392Z,84.74
2022-07-28T00:34:08.378Z,84.74
2022-07-28T00:35:08.839Z,84.84
2022-07-28T00:36:10.302Z,84.74
2022-07-28T00:37:08.384Z,85.05
2022-07-28T00:38:09.348Z,84.74
2022-07-28T00:39:08.343Z,84.95
2022-07-28T00:40:08.337Z,84.95
2022-07-28T00:41:08.326Z,85.05
2022-07-28T00:42:08.346Z,84.99
2022-07-28T00:43:08.312Z,85.30
2022-07-28T00:44:08.305Z,86.01
2022-07-28T00:45:08.294Z,86.42
2022-07-28T00:46:08.415Z,86.57
2022-07-28T00:47:08.284Z,86.87
2022-07-28T00:48:08.309Z,86.77
2022-07-28T00:49:08.331Z,87.08
2022-07-28T00:50:08.257Z,86.77
2022-07-28T00:51:08.248Z,86.77
2022-07-28T00:52:08.241Z,86.77
2022-07-28T00:53:08.785Z,86.98
2022-07-28T00:54:08.230Z,86.57
2022-07-28T00:55:08.222Z,86.87
2022-07-28T00:56:08.211Z,86.98
2022-07-28T00:57:08.203Z,86.77
2022-07-28T00:58:08.218Z,86.77
2022-07-28T00:59:08.186Z,86.57
2022-07-28T01:00:08.182Z,86.77
2022-07-28T01:01:08.176Z,86.77
2022-07-28T01:02:08.309Z,86.46
2022-07-28T01:03:08.215Z,86.83
2022-07-28T01:04:08.154Z,86.98
2022-07-28T01:05:08.146Z,86.87
2022-07-28T01:06:08.133Z,86.77
2022-07-28T01:07:08.130Z,86.98
2022-07-28T01:08:08.145Z,86.77
2022-07-28T01:09:08.104Z,87.53
2022-07-28T01:10:08.102Z,87.53
2022-07-28T01:11:08.101Z,87.84
2022-07-28T01:12:08.089Z,87.94
2022-07-28T01:13:08.102Z,88.24
2022-07-28T01:14:08.077Z,88.35
2022-07-28T01:15:08.068Z,88.04
2022-07-28T01:16:08.073Z,87.94
2022-07-28T01:17:08.050Z,88.14
2022-07-28T01:18:39.978Z,88.66
2022-07-28T01:19:08.035Z,88.24
2022-07-28T01:20:08.038Z,88.45
2022-07-28T01:21:08.036Z,88.45
2022-07-28T01:22:08.059Z,87.94
2022-07-28T01:23:08.033Z,87.94
2022-07-28T01:24:07.998Z,87.94
2022-07-28T01:25:07.991Z,88.24
2022-07-28T01:26:07.985Z,88.31
2022-07-28T01:27:07.986Z,87.94
2022-07-28T01:28:07.996Z,88.45
2022-07-28T01:29:07.963Z,88.80
2022-07-28T01:30:07.959Z,88.56
2022-07-28T01:31:08.001Z,88.39
2022-07-28T01:32:07.931Z,88.45
2022-07-28T01:33:07.955Z,88.56
2022-07-28T01:34:07.924Z,88.80
2022-07-28T01:35:07.921Z,88.86
2022-07-28T01:36:07.908Z,88.66
2022-07-28T01:37:07.898Z,88.76
2022-07-28T01:38:07.918Z,88.56
2022-07-28T01:39:07.883Z,87.94
2022-07-28T01:40:07.876Z,88.14
2022-07-28T01:41:07.868Z,88.35
2022-07-28T01:42:07.860Z,88.62
2022-07-28T01:43:08.473Z,87.49
2022-07-28T01:44:07.843Z,87.49
2022-07-28T01:45:07.848Z,87.70
2022-07-28T01:46:07.850Z,87.90
2022-07-28T01:47:07.824Z,88.24
2022-07-28T01:48:07.844Z,88.18
2022-07-28T01:49:07.875Z,88.45
2022-07-28T01:50:07.803Z,88.56
2022-07-28T01:51:07.790Z,88.66
2022-07-28T01:52:07.780Z,88.56
2022-07-28T01:53:07.805Z,88.76
2022-07-28T01:54:07.765Z,89.21
2022-07-28T01:55:07.784Z,89.62
2022-07-28T01:56:07.752Z,89.62
2022-07-28T01:57:07.749Z,89.52
2022-07-28T01:58:07.770Z,89.72
2022-07-28T01:59:07.757Z,89.93
2022-07-28T02:00:07.726Z,89.58
2022-07-28T02:01:07.803Z,89.48
2022-07-28T02:02:07.816Z,89.62
2022-07-28T02:03:07.747Z,89.83
2022-07-28T02:04:07.691Z,89.97
2022-07-28T02:05:07.746Z,90.18
2022-07-28T02:06:07.684Z,89.97
2022-07-28T02:07:07.679Z,90.18
2022-07-28T02:08:07.697Z,90.34
2022-07-28T02:09:07.663Z,90.08
2022-07-28T02:10:07.660Z,90.14
2022-07-28T02:11:09.938Z,90.03
2022-07-28T02:12:07.639Z,89.93
2022-07-28T02:13:07.640Z,89.83
2022-07-28T02:14:07.648Z,90.14
2022-07-28T02:15:07.625Z,90.03
2022-07-28T02:16:07.717Z,90.24
2022-07-28T02:17:07.597Z,89.72
2022-07-28T02:18:07.587Z,90.14
2022-07-28T02:19:07.609Z,90.14
2022-07-28T02:20:07.577Z,89.83
2022-07-28T02:21:07.574Z,89.97
2022-07-28T02:22:07.572Z,89.62
2022-07-28T02:23:07.556Z,89.62
2022-07-28T02:24:07.582Z,89.87
2022-07-28T02:25:07.545Z,90.03
2022-07-28T02:26:07.537Z,90.24
2022-07-28T02:27:07.521Z,90.03
2022-07-28T02:28:07.518Z,89.83
2022-07-28T02:29:07.534Z,90.14
2022-07-28T02:30:07.504Z,89.93
2022-07-28T02:31:07.567Z,90.14
2022-07-28T02:32:27.248Z,90.55
2022-07-28T02:33:08.486Z,89.93
2022-07-28T02:34:07.728Z,89.93
2022-07-28T02:35:08.796Z,90.24
2022-07-28T02:36:07.458Z,90.24
2022-07-28T02:37:07.448Z,90.03
2022-07-28T02:38:07.450Z,90.55
2022-07-28T02:39:07.472Z,90.55
2022-07-28T02:40:07.443Z,90.24
2022-07-28T02:41:07.419Z,90.28
2022-07-28T02:42:07.412Z,90.44
2022-07-28T02:43:07.424Z,91.20
2022-07-28T02:44:07.419Z,91.27
2022-07-28T02:45:07.388Z,90.89
2022-07-28T02:46:07.420Z,90.80
2022-07-28T02:47:07.372Z,91.10
2022-07-28T02:48:07.363Z,90.85
2022-07-28T02:49:07.489Z,91.20
2022-07-28T02:50:07.351Z,91.41
2022-07-28T02:51:07.335Z,91.31
2022-07-28T02:52:07.332Z,91.51
2022-07-28T02:53:15.005Z,91.31
2022-07-28T02:54:08.346Z,91.31
2022-07-28T02:55:07.313Z,91.20
2022-07-28T02:56:07.295Z,90.69
2022-07-28T02:57:07.285Z,91.20
2022-07-28T02:58:07.287Z,91.20
2022-07-28T02:59:07.300Z,91.00
2022-07-28T03:00:07.274Z,90.69
2022-07-28T03:01:07.343Z,91.00
2022-07-28T03:02:07.259Z,91.00
2022-07-28T03:03:07.241Z,90.80
2022-07-28T03:04:07.303Z,91.41
2022-07-28T03:05:08.682Z,91.31
2022-07-28T03:06:07.215Z,91.00
2022-07-28T03:07:07.217Z,91.51
2022-07-28T03:08:07.213Z,91.61
2022-07-28T03:09:07.224Z,91.25
2022-07-28T03:10:07.193Z,91.66
2022-07-28T03:11:07.183Z,91.86
2022-07-28T03:12:07.178Z,91.97
2022-07-28T03:13:07.256Z,92.27
2022-07-28T03:14:07.190Z,92.38
2022-07-28T03:15:07.154Z,92.17
2022-07-28T03:16:07.147Z,92.58
2022-07-28T03:17:07.213Z,92.52
2022-07-28T03:18:07.135Z,92.01
2022-07-28T03:19:07.159Z,92.42
2022-07-28T03:20:07.123Z,92.32
2022-07-28T03:21:07.107Z,92.48
2022-07-28T03:22:10.449Z,92.52
2022-07-28T03:23:07.093Z,92.69
2022-07-28T03:24:07.084Z,92.38
2022-07-28T03:25:07.095Z,92.27
2022-07-28T03:26:07.069Z,92.48
2022-07-28T03:27:07.063Z,92.48
2022-07-28T03:28:07.055Z,92.38
2022-07-28T03:29:07.048Z,92.63
2022-07-28T03:30:07.072Z,93.30
2022-07-28T03:31:07.092Z,93.20
2022-07-28T03:32:07.026Z,93.20
2022-07-28T03:33:07.022Z,93.40
2022-07-28T03:34:07.010Z,93.10
2022-07-28T03:35:07.034Z,93.71
2022-07-28T03:36:07.000Z,94.02
2022-07-28T03:37:06.989Z,93.20
2022-07-28T03:38:06.981Z,93.61
2022-07-28T03:39:06.967Z,93.92
2022-07-28T03:40:06.994Z,93.71
2022-07-28T03:41:06.957Z,93.71
2022-07-28T03:42:06.951Z,93.40
2022-07-28T03:43:06.946Z,94.17
2022-07-28T03:44:06.946Z,93.92
2022-07-28T03:45:06.955Z,94.43
2022-07-28T03:46:12.701Z,93.92
2022-07-28T03:47:08.910Z,93.82
2022-07-28T03:48:06.900Z,94.08
2022-07-28T03:49:06.982Z,93.61
2022-07-28T03:50:06.913Z,93.30
2022-07-28T03:51:06.883Z,93.51
2022-07-28T03:52:06.866Z,93.20
2022-07-28T03:53:06.862Z,93.20
2022-07-28T03:54:06.861Z,93.30
2022-07-28T03:55:06.871Z,93.82
2022-07-28T03:56:06.841Z,93.20
2022-07-28T03:57:06.836Z,92.95
2022-07-28T03:58:06.826Z,93.30
2022-07-28T03:59:06.822Z,92.58
2022-07-28T04:00:09.702Z,92.69
2022-07-28T04:01:08.690Z,92.99
2022-07-28T04:02:06.814Z,93.10
2022-07-28T04:03:35.061Z,93.30
2022-07-28T04:04:07.782Z,93.30
2022-07-28T04:05:06.802Z,93.40
2022-07-28T04:06:06.752Z,93.10
2022-07-28T04:07:07.758Z,93.05
2022-07-28T04:08:06.745Z,92.85
2022-07-28T04:09:06.759Z,93.26
2022-07-28T04:10:06.771Z,92.99
2022-07-28T04:11:06.732Z,92.54
2022-07-28T04:12:06.716Z,93.16
2022-07-28T04:13:06.714Z,93.05
2022-07-28T04:14:06.712Z,93.20
2022-07-28T04:15:06.720Z,93.51
2022-07-28T04:16:06.687Z,93.10
2022-07-28T04:17:06.724Z,93.51
2022-07-28T04:18:06.669Z,93.20
2022-07-28T04:19:06.666Z,93.20
2022-07-28T04:20:06.683Z,93.20
2022-07-28T04:21:06.646Z,93.36
2022-07-28T04:22:06.645Z,93.30
2022-07-28T04:23:06.641Z,93.30
2022-07-28T04:24:06.636Z,92.58
2022-07-28T04:25:06.656Z,92.89
2022-07-28T04:26:06.619Z,92.58
2022-07-28T04:27:06.607Z,92.48
2022-07-28T04:28:06.598Z,92.89
2022-07-28T04:29:06.594Z,92.79
2022-07-28T04:30:06.614Z,92.69
2022-07-28T04:31:06.627Z,92.85
2022-07-28T04:32:06.568Z,92.33
2022-07-28T04:33:06.564Z,92.23
2022-07-28T04:34:06.592Z,92.13
2022-07-28T04:35:06.576Z,92.33
2022-07-28T04:36:06.535Z,91.88
2022-07-28T04:37:06.531Z,91.41
2022-07-28T04:38:06.523Z,91.47
2022-07-28T04:39:06.512Z,91.47
2022-07-28T04:40:06.511Z,91.57
2022-07-28T04:41:06.527Z,91.61
2022-07-28T04:42:06.507Z,91.99
2022-07-28T04:43:06.486Z,91.88
2022-07-28T04:44:06.481Z,91.47
2022-07-28T04:45:06.467Z,91.57
2022-07-28T04:46:06.526Z,91.47
2022-07-28T04:47:06.574Z,91.47
2022-07-28T04:48:06.444Z,90.71
2022-07-28T04:49:06.631Z,91.33
2022-07-28T04:50:06.429Z,89.95
2022-07-28T04:51:06.444Z,89.09
2022-07-28T04:52:06.417Z,88.80
2022-07-28T04:53:06.403Z,86.26
2022-07-28T04:54:06.401Z,84.34
2022-07-28T04:55:06.391Z,83.14
2022-07-28T04:56:06.409Z,80.96
2022-07-28T04:57:10.393Z,80.41
2022-07-28T04:58:07.364Z,79.21
2022-07-28T04:59:06.362Z,78.98
2022-07-28T05:00:06.354Z,79.90
2022-07-28T05:01:06.448Z,79.32
2022-07-28T05:02:06.342Z,77.06
2022-07-28T05:03:06.329Z,76.28
2022-07-28T05:04:06.380Z,74.38
2022-07-28T05:05:06.357Z,72.41
2022-07-28T05:06:06.332Z,72.89
2022-07-28T05:07:11.949Z,70.86
2022-07-28T05:08:07.293Z,69.51
2022-07-28T05:09:06.290Z,69.24
2022-07-28T05:10:06.274Z,68.96
2022-07-28T05:11:06.308Z,70.55
2022-07-28T05:12:06.271Z,72.52
2022-07-28T05:13:06.259Z,72.72
2022-07-28T05:14:06.253Z,72.28
2022-07-28T05:15:06.239Z,69.88
2022-07-28T05:16:06.302Z,70.79
2022-07-28T05:17:06.236Z,73.50
2022-07-28T05:18:06.241Z,75.84
2022-07-28T05:19:06.214Z,77.48
2022-07-28T05:20:06.229Z,79.90
2022-07-28T05:21:06.214Z,80.75
2022-07-28T05:22:07.186Z,81.71
2022-07-28T05:23:06.177Z,82.53
2022-07-28T05:24:06.168Z,83.07
2022-07-28T05:25:06.164Z,83.32
2022-07-28T05:26:06.186Z,84.03
2022-07-28T05:27:06.145Z,83.48
2022-07-28T05:28:06.174Z,83.79
2022-07-28T05:29:06.135Z,83.59
2022-07-28T05:30:06.125Z,83.44
2022-07-28T05:31:06.146Z,83.10
2022-07-28T05:32:16.679Z,81.39
2022-07-28T05:33:08.102Z,79.57
2022-07-28T05:34:06.103Z,75.56
2022-07-28T05:35:06.091Z,72.14
2022-07-28T05:36:06.106Z,68.94
2022-07-28T05:37:06.074Z,67.83
2022-07-28T05:38:10.528Z,64.90
2022-07-28T05:39:08.074Z,63.53
2022-07-28T05:40:06.047Z,63.50
2022-07-28T05:41:06.065Z,61.89
2022-07-28T05:42:06.055Z,61.53
2022-07-28T05:43:06.032Z,60.57
2022-07-28T05:44:06.025Z,59.83
2022-07-28T05:45:16.748Z,59.83
2022-07-28T05:46:07.096Z,58.87
2022-07-28T05:47:06.044Z,57.94
2022-07-28T05:48:05.996Z,57.01
2022-07-28T05:49:06.035Z,58.42
2022-07-28T05:50:05.980Z,58.24
2022-07-28T05:51:05.994Z,58.65
2022-07-28T05:52:05.963Z,60.47
2022-07-28T05:53:05.950Z,59.01
2022-07-28T05:54:05.943Z,62.34
2022-07-28T05:55:05.935Z,60.09
2022-07-28T05:56:05.959Z,60.55
2022-07-28T05:57:05.913Z,60.60
2022-07-28T05:58:05.907Z,61.89
2022-07-28T05:59:05.901Z,63.53
2022-07-28T06:00:05.893Z,65.08
2022-07-28T06:01:05.971Z,64.64
2022-07-28T06:02:05.941Z,64.58
2022-07-28T06:03:05.873Z,63.13
2022-07-28T06:04:27.256Z,66.04
2022-07-28T06:05:07.859Z,70.59
2022-07-28T06:06:14.604Z,70.18
2022-07-28T06:07:06.839Z,71.33
2022-07-28T06:08:05.829Z,73.26
2022-07-28T06:09:05.830Z,73.60
2022-07-28T06:10:05.813Z,74.85
2022-07-28T06:11:05.845Z,74.44
2022-07-28T06:12:05.806Z,74.85
2022-07-28T06:13:05.802Z,73.90
2022-07-28T06:14:05.793Z,74.14
2022-07-28T06:15:05.777Z,74.10
2022-07-28T06:16:09.664Z,73.16
2022-07-28T06:17:07.890Z,72.85
2022-07-28T06:18:05.755Z,71.94
2022-07-28T06:19:05.749Z,73.29
2022-07-28T06:20:05.734Z,72.17
2022-07-28T06:21:05.783Z,72.69
2022-07-28T06:22:05.741Z,73.29
2022-07-28T06:23:05.742Z,73.22
2022-07-28T06:24:05.714Z,73.19
2022-07-28T06:25:05.709Z,72.69
2022-07-28T06:26:05.695Z,72.78
2022-07-28T06:27:06.664Z,72.55
2022-07-28T06:28:05.681Z,71.84
2022-07-28T06:29:05.678Z,71.53
2022-07-28T06:30:05.661Z,72.38
2022-07-28T06:31:05.708Z,72.28
2022-07-28T06:32:05.739Z,72.45
2022-07-28T06:33:05.666Z,72.31
2022-07-28T06:34:05.638Z,71.77
2022-07-28T06:35:05.633Z,70.21
2022-07-28T06:36:05.623Z,70.45
2022-07-28T06:37:05.660Z,71.47
2022-07-28T06:38:05.606Z,70.62
2022-07-28T06:39:05.608Z,70.35
2022-07-28T06:40:05.600Z,71.30
2022-07-28T06:41:05.586Z,71.80
2022-07-28T06:42:05.608Z,71.06
2022-07-28T06:43:05.572Z,70.21
2022-07-28T06:44:05.562Z,70.49
2022-07-28T06:45:05.555Z,69.14
2022-07-28T06:46:05.553Z,68.10
2022-07-28T06:47:05.646Z,69.34
2022-07-28T06:48:05.528Z,68.26
2022-07-28T06:49:05.597Z,69.03
2022-07-28T06:50:05.520Z,70.25
2022-07-28T06:51:06.533Z,68.60
2022-07-28T06:52:05.530Z,68.66
2022-07-28T06:53:05.501Z,68.97
2022-07-28T06:54:10.741Z,68.06
2022-07-28T06:55:07.481Z,68.49
2022-07-28T06:56:05.518Z,68.77
2022-07-28T06:57:05.491Z,67.18
2022-07-28T06:58:05.462Z,67.42
2022-07-28T06:59:05.448Z,67.18
2022-07-28T07:00:05.442Z,67.08
2022-07-28T07:01:05.486Z,66.24
2022-07-28T07:02:05.446Z,65.53
2022-07-28T07:03:09.602Z,65.67
2022-07-28T07:04:05.471Z,64.93
2022-07-28T07:05:05.415Z,65.33
2022-07-28T07:06:05.398Z,65.61
2022-07-28T07:07:14.737Z,63.92
2022-07-28T07:08:06.377Z,65.33
2022-07-28T07:09:05.368Z,64.09
2022-07-28T07:10:05.369Z,64.73
2022-07-28T07:11:05.365Z,65.03
2022-07-28T07:12:05.380Z,65.33
2022-07-28T07:13:05.351Z,64.83
2022-07-28T07:14:05.345Z,64.79
2022-07-28T07:15:05.332Z,65.37
2022-07-28T07:16:05.400Z,63.28
2022-07-28T07:17:05.346Z,63.96
2022-07-28T07:18:39.276Z,63.68
2022-07-28T07:19:06.866Z,63.61
2022-07-28T07:20:05.290Z,64.93
2022-07-28T07:21:05.281Z,64.49
2022-07-28T07:22:05.304Z,64.26
2022-07-28T07:23:05.272Z,63.45
2022-07-28T07:24:05.267Z,63.45
2022-07-28T07:25:05.258Z,63.68
2022-07-28T07:26:05.252Z,63.82
2022-07-28T07:27:05.269Z,63.45
2022-07-28T07:28:05.237Z,64.13
2022-07-28T07:29:05.221Z,63.59
2022-07-28T07:30:05.221Z,61.55
2022-07-28T07:31:05.258Z,62.88
2022-07-28T07:32:10.366Z,62.62
2022-07-28T07:33:08.011Z,63.52
2022-07-28T07:34:05.194Z,62.99
2022-07-28T07:35:05.183Z,62.55
2022-07-28T07:36:05.179Z,62.28
2022-07-28T07:37:05.194Z,62.38
2022-07-28T07:38:05.170Z,62.92
2022-07-28T07:39:05.158Z,62.82
2022-07-28T07:40:05.143Z,62.79
2022-07-28T07:41:05.135Z,61.95
2022-07-28T07:42:05.156Z,62.18
2022-07-28T07:43:05.126Z,61.32
2022-07-28T07:44:05.112Z,61.55
2022-07-28T07:45:05.103Z,61.24
2022-07-28T07:46:05.144Z,62.85
2022-07-28T07:47:05.160Z,62.43
2022-07-28T07:48:05.079Z,61.18
2022-07-28T07:49:05.161Z,61.08
2022-07-28T07:50:05.069Z,61.11
2022-07-28T07:51:05.055Z,60.81
2022-07-28T07:52:05.079Z,60.58
2022-07-28T07:53:05.042Z,60.15
2022-07-28T07:54:05.041Z,59.55
2022-07-28T07:55:05.034Z,59.24
2022-07-28T07:56:05.017Z,59.24
2022-07-28T07:57:05.042Z,59.04
2022-07-28T07:58:05.007Z,59.55
2022-07-28T07:59:04.999Z,59.75
2022-07-28T08:00:04.996Z,59.24
2022-07-28T08:01:04.979Z,59.95
2022-07-28T08:02:05.062Z,60.35
2022-07-28T08:03:11.015Z,59.17
2022-07-28T08:04:05.981Z,59.24
2022-07-28T08:05:05.011Z,59.44
2022-07-28T08:06:04.946Z,60.02
2022-07-28T08:07:04.932Z,59.76
2022-07-28T08:08:05.098Z,57.85
2022-07-28T08:09:04.921Z,58.58
2022-07-28T08:10:04.911Z,59.77
2022-07-28T08:11:04.901Z,59.64
2022-07-28T08:12:04.899Z,59.95
2022-07-28T08:13:04.903Z,59.28
2022-07-28T08:14:05.881Z,59.46
2022-07-28T08:15:04.876Z,57.12
2022-07-28T08:16:04.911Z,56.82
2022-07-28T08:17:04.858Z,57.75
2022-07-28T08:18:04.873Z,58.35
2022-07-28T08:19:04.841Z,57.65
2022-07-28T08:20:04.831Z,58.25
2022-07-28T08:21:04.828Z,58.65
2022-07-28T08:22:04.816Z,57.04
2022-07-28T08:23:04.833Z,57.04
2022-07-28T08:24:04.804Z,58.33
2022-07-28T08:25:04.793Z,58.25
2022-07-28T08:26:04.789Z,57.65
2022-07-28T08:27:04.785Z,57.15
2022-07-28T08:28:04.798Z,57.22
2022-07-28T08:29:04.768Z,55.99
2022-07-28T08:30:04.777Z,55.88
2022-07-28T08:31:04.786Z,55.99
2022-07-28T08:32:04.743Z,57.82
2022-07-28T08:33:04.758Z,56.09
2022-07-28T08:34:04.730Z,55.46
2022-07-28T08:35:31.502Z,56.06
2022-07-28T08:36:06.707Z,56.06
2022-07-28T08:37:04.706Z,55.33
2022-07-28T08:38:04.721Z,55.33
2022-07-28T08:39:04.684Z,55.26
2022-07-28T08:40:04.675Z,55.66
2022-07-28T08:41:04.676Z,55.88
2022-07-28T08:42:04.670Z,55.88
2022-07-28T08:43:04.687Z,54.98
2022-07-28T08:44:04.651Z,56.01
2022-07-28T08:45:04.662Z,55.99
2022-07-28T08:46:04.733Z,55.66
2022-07-28T08:47:04.697Z,56.06
2022-07-28T08:48:09.095Z,56.19
2022-07-28T08:49:06.680Z,55.76
2022-07-28T08:50:04.605Z,55.96
2022-07-28T08:51:04.609Z,55.63
2022-07-28T08:52:04.586Z,54.83
2022-07-28T08:53:04.613Z,55.05
2022-07-28T08:54:04.579Z,55.13
2022-07-28T08:55:04.570Z,55.33
2022-07-28T08:56:04.561Z,55.30
2022-07-28T08:57:04.554Z,55.30
2022-07-28T08:58:04.579Z,54.07
2022-07-28T08:59:04.541Z,54.88
2022-07-28T09:00:04.529Z,53.97
2022-07-28T09:01:04.530Z,54.53
2022-07-28T09:02:04.545Z,54.35
2022-07-28T09:03:04.644Z,55.33
2022-07-28T09:04:04.503Z,55.23
2022-07-28T09:05:04.511Z,55.00
2022-07-28T09:06:04.503Z,54.27
2022-07-28T09:07:04.472Z,54.07
2022-07-28T09:08:04.493Z,53.82
2022-07-28T09:09:04.462Z,53.55
2022-07-28T09:10:04.459Z,53.22
2022-07-28T09:11:04.446Z,53.05
2022-07-28T09:12:04.441Z,52.84
2022-07-28T09:13:04.452Z,53.14
2022-07-28T09:14:04.414Z,53.27
2022-07-28T09:15:04.411Z,53.14
2022-07-28T09:16:04.457Z,53.45
2022-07-28T09:17:05.237Z,53.92
2022-07-28T09:18:04.418Z,53.82
2022-07-28T09:19:04.387Z,52.39
2022-07-28T09:20:10.403Z,52.29
2022-07-28T09:21:06.370Z,53.34
2022-07-28T09:22:04.360Z,53.02
2022-07-28T09:23:04.382Z,52.72
2022-07-28T09:24:04.345Z,52.89
2022-07-28T09:25:04.339Z,52.27
2022-07-28T09:26:09.967Z,52.02
2022-07-28T09:27:06.322Z,50.04
2022-07-28T09:28:04.313Z,51.77
2022-07-28T09:29:04.344Z,50.72
2022-07-28T09:30:04.304Z,49.87
2022-07-28T09:31:04.322Z,50.24
2022-07-28T09:32:04.344Z,49.74
2022-07-28T09:33:04.278Z,49.57
2022-07-28T09:34:04.298Z,50.27
2022-07-28T09:35:04.266Z,49.77
2022-07-28T09:36:04.263Z,50.20
2022-07-28T09:37:04.243Z,50.32
2022-07-28T09:38:04.244Z,50.94
2022-07-28T09:39:04.273Z,50.72
2022-07-28T09:40:04.311Z,50.42
2022-07-28T09:41:04.222Z,49.84
2022-07-28T09:42:04.215Z,50.44
2022-07-28T09:43:04.208Z,50.94
2022-07-28T09:44:04.226Z,50.54
2022-07-28T09:45:21.803Z,51.02
2022-07-28T09:46:06.349Z,50.44
2022-07-28T09:47:04.344Z,52.07
2022-07-28T09:48:04.292Z,50.84
2022-07-28T09:49:04.370Z,50.74
2022-07-28T09:50:04.198Z,51.22
2022-07-28T09:51:04.143Z,50.32
2022-07-28T09:52:04.152Z,50.24
2022-07-28T09:53:04.127Z,50.64
2022-07-28T09:54:04.138Z,51.87
2022-07-28T09:55:04.109Z,52.22
2022-07-28T09:56:04.103Z,51.46
2022-07-28T09:57:04.087Z,51.79
2022-07-28T09:58:04.084Z,51.84
2022-07-28T09:59:05.099Z,50.02
2022-07-28T10:00:04.068Z,51.59
2022-07-28T10:01:04.086Z,51.97
2022-07-28T10:02:04.099Z,51.46
2022-07-28T10:03:04.083Z,51.17
2022-07-28T10:04:04.089Z,51.87
2022-07-28T10:05:04.048Z,51.97
2022-07-28T10:06:04.022Z,51.72
2022-07-28T10:07:04.022Z,49.79
2022-07-28T10:08:04.012Z,50.39
2022-07-28T10:09:04.032Z,50.79
2022-07-28T10:10:03.987Z,49.79
2022-07-28T10:11:03.990Z,49.69
2022-07-28T10:12:03.968Z,49.72
2022-07-28T10:13:04.967Z,49.94
2022-07-28T10:14:03.984Z,50.24
2022-07-28T10:15:03.949Z,50.34
2022-07-28T10:16:03.967Z,50.72
2022-07-28T10:17:06.145Z,50.27
2022-07-28T10:18:04.929Z,49.42
2022-07-28T10:19:03.952Z,48.10
2022-07-28T10:20:03.918Z,47.50
2022-07-28T10:21:03.911Z,47.50
2022-07-28T10:22:03.901Z,48.28
2022-07-28T10:23:03.892Z,47.33
2022-07-28T10:24:03.916Z,48.10
2022-07-28T10:25:03.882Z,48.05
2022-07-28T10:26:03.874Z,49.79
2022-07-28T10:27:04.860Z,49.49
2022-07-28T10:28:03.859Z,48.99
2022-07-28T10:29:03.876Z,49.19
2022-07-28T10:30:03.838Z,49.69
2022-07-28T10:31:03.874Z,49.62
2022-07-28T10:32:03.826Z,49.59
2022-07-28T10:33:03.818Z,50.22
2022-07-28T10:34:03.813Z,49.67
2022-07-28T10:35:03.840Z,48.07
2022-07-28T10:36:03.793Z,48.05
2022-07-28T10:37:03.786Z,48.37
2022-07-28T10:38:03.783Z,48.79
2022-07-28T10:39:03.782Z,48.79
2022-07-28T10:40:09.382Z,48.25
2022-07-28T10:41:05.751Z,47.92
2022-07-28T10:42:03.754Z,47.53
2022-07-28T10:43:03.735Z,48.14
2022-07-28T10:44:03.728Z,47.13
2022-07-28T10:45:03.750Z,47.57
2022-07-28T10:46:06.014Z,48.45
2022-07-28T10:47:04.748Z,46.78
2022-07-28T10:48:03.700Z,47.20
2022-07-28T10:49:03.917Z,47.50
2022-07-28T10:50:03.712Z,46.70
2022-07-28T10:51:03.678Z,46.80
2022-07-28T10:52:08.653Z,46.61
2022-07-28T10:53:04.661Z,47.83
2022-07-28T10:54:03.659Z,46.61
2022-07-28T10:55:03.678Z,47.53
2022-07-28T10:56:03.641Z,46.80
2022-07-28T10:57:04.853Z,46.19
2022-07-28T10:58:11.727Z,46.73
2022-07-28T10:59:05.038Z,46.24
2022-07-28T11:00:12.764Z,45.86
2022-07-28T11:01:06.616Z,47.33
2022-07-28T11:02:04.693Z,45.94
2022-07-28T11:03:13.333Z,44.74
2022-07-28T11:04:04.582Z,46.61
2022-07-28T11:05:03.602Z,45.96
2022-07-28T11:06:03.563Z,46.24
2022-07-28T11:07:03.558Z,45.22
2022-07-28T11:08:03.554Z,46.88
2022-07-28T11:09:03.540Z,45.89
2022-07-28T11:10:03.561Z,46.11
2022-07-28T11:11:08.744Z,46.80
2022-07-28T11:12:04.519Z,46.01
2022-07-28T11:13:04.084Z,46.31
2022-07-28T11:14:03.504Z,46.92
2022-07-28T11:15:18.360Z,46.20
2022-07-28T11:16:04.491Z,47.20
2022-07-28T11:17:03.548Z,46.48
2022-07-28T11:18:03.479Z,46.86
2022-07-28T11:19:04.780Z,46.28
2022-07-28T11:20:30.542Z,45.86
2022-07-28T11:21:05.459Z,45.94
2022-07-28T11:22:03.456Z,46.16
2022-07-28T11:23:03.446Z,46.16
2022-07-28T11:24:03.439Z,46.42
2022-07-28T11:25:18.928Z,46.06
2022-07-28T11:26:04.447Z,46.08
2022-07-28T11:27:04.208Z,46.26
2022-07-28T11:28:04.417Z,45.54
2022-07-28T11:29:03.400Z,45.14
2022-07-28T11:30:03.398Z,45.42
2022-07-28T11:31:03.522Z,45.22
2022-07-28T11:32:03.381Z,45.20
2022-07-28T11:33:03.373Z,43.59
2022-07-28T11:34:03.364Z,44.16
2022-07-28T11:35:03.356Z,43.79
2022-07-28T11:36:03.380Z,44.10
2022-07-28T11:37:03.343Z,43.96
2022-07-28T11:38:03.642Z,43.16
2022-07-28T11:39:03.326Z,43.08
2022-07-28T11:40:03.321Z,44.80
2022-07-28T11:41:03.339Z,44.40
2022-07-28T11:42:03.313Z,44.50
2022-07-28T11:43:03.313Z,43.76
2022-07-28T11:44:03.292Z,43.54
2022-07-28T11:45:03.292Z,43.66
2022-07-28T11:46:03.343Z,43.84
2022-07-28T11:47:03.267Z,42.63
2022-07-28T11:48:03.268Z,42.21
2022-07-28T11:49:03.321Z,42.29
2022-07-28T11:50:03.246Z,42.47
2022-07-28T11:51:03.267Z,43.66
2022-07-28T11:52:03.230Z,44.26
2022-07-28T11:53:03.222Z,42.94
2022-07-28T11:54:03.220Z,42.27
2022-07-28T11:55:03.214Z,43.08
2022-07-28T11:56:03.403Z,44.08
2022-07-28T11:57:03.198Z,42.67
2022-07-28T11:58:03.185Z,43.37
2022-07-28T11:59:03.196Z,44.48
2022-07-28T12:00:03.175Z,44.68
2022-07-28T12:01:03.201Z,44.46
2022-07-28T12:02:03.282Z,43.05
2022-07-28T12:03:03.178Z,42.75
2022-07-28T12:04:03.145Z,42.45
2022-07-28T12:05:03.179Z,41.83
2022-07-28T12:06:03.154Z,42.45
2022-07-28T12:07:03.124Z,42.77
2022-07-28T12:08:03.137Z,45.04
2022-07-28T12:09:03.117Z,44.15
2022-07-28T12:10:03.117Z,44.78
2022-07-28T12:11:03.125Z,43.07
2022-07-28T12:12:03.092Z,41.95
2022-07-28T12:13:03.079Z,42.72
2022-07-28T12:14:03.093Z,41.31
2022-07-28T12:15:06.823Z,41.93
2022-07-28T12:16:04.102Z,42.77
2022-07-28T12:17:03.118Z,44.18
2022-07-28T12:18:03.042Z,42.47
2022-07-28T12:19:03.033Z,43.37
2022-07-28T12:20:03.035Z,42.09
2022-07-28T12:21:05.245Z,43.82
2022-07-28T12:22:04.015Z,43.80
2022-07-28T12:23:03.011Z,44.12
2022-07-28T12:24:03.000Z,44.82
2022-07-28T12:25:02.996Z,44.53
2022-07-28T12:26:02.987Z,44.02
2022-07-28T12:27:03.001Z,45.04
2022-07-28T12:28:02.972Z,44.80
2022-07-28T12:29:02.965Z,43.71
2022-07-28T12:30:03.979Z,44.20
2022-07-28T12:31:02.954Z,43.51
2022-07-28T12:32:03.045Z,43.30
2022-07-28T12:33:02.934Z,44.05
2022-07-28T12:34:02.934Z,43.65
2022-07-28T12:35:02.918Z,44.23
2022-07-28T12:36:02.922Z,43.30
2022-07-28T12:37:02.931Z,43.71
2022-07-28T12:38:02.897Z,43.38
2022-07-28T12:39:02.883Z,43.86
2022-07-28T12:40:02.876Z,42.47
2022-07-28T12:41:02.876Z,43.63
2022-07-28T12:42:02.896Z,43.93
2022-07-28T12:43:02.853Z,44.32
2022-07-28T12:44:11.467Z,43.93
2022-07-28T12:45:03.843Z,43.30
2022-07-28T12:46:02.919Z,43.80
2022-07-28T12:47:02.855Z,43.29
2022-07-28T12:48:02.820Z,43.07
2022-07-28T12:49:02.885Z,43.07
2022-07-28T12:50:06.902Z,42.25
2022-07-28T12:51:03.803Z,42.93
2022-07-28T12:52:02.810Z,41.34